sensor_id;sensor_type;location;lat;lon;timestamp;pressure;altitude;pressure_sealevel;temperature;humidity
41624;BME280;27319;50.306;18.926;2022-10-17T00:00:22;99280.09;;;12.73;91.22
41624;BME280;27319;50.306;18.926;2022-10-17T00:04:27;99288.84;;;12.75;92.66
41624;BME280;27319;50.306;18.926;2022-10-17T00:08:28;99284.22;;;12.85;92.64
41624;BME280;27319;50.306;18.926;2022-10-17T00:12:11;99290.00;;;12.73;91.84
41624;BME280;27319;50.306;18.926;2022-10-17T00:15:31;99293.50;;;12.65;90.67
41624;BME280;27319;50.306;18.926;2022-10-17T00:19:32;99298.72;;;12.67;91.51
41624;BME280;27319;50.306;18.926;2022-10-17T00:23:12;99297.13;;;12.74;92.39
41624;BME280;27319;50.306;18.926;2022-10-17T00:26:33;99303.47;;;12.73;91.45
41624;BME280;27319;50.306;18.926;2022-10-17T00:30:34;99296.03;;;12.67;90.89
41624;BME280;27319;50.306;18.926;2022-10-17T00:34:15;99297.13;;;12.74;91.01
41624;BME280;27319;50.306;18.926;2022-10-17T00:37:35;99299.09;;;12.72;91.10
41624;BME280;27319;50.306;18.926;2022-10-17T00:41:36;99302.81;;;12.71;91.00
41624;BME280;27319;50.306;18.926;2022-10-17T00:45:42;99315.34;;;12.80;91.19
41624;BME280;27319;50.306;18.926;2022-10-17T00:49:43;99307.56;;;12.77;91.20
41624;BME280;27319;50.306;18.926;2022-10-17T00:53:43;99300.25;;;12.69;90.81
41624;BME280;27319;50.306;18.926;2022-10-17T00:57:44;99305.19;;;12.56;90.04
41624;BME280;27319;50.306;18.926;2022-10-17T01:04:27;99300.81;;;12.20;90.37
41624;BME280;27319;50.306;18.926;2022-10-17T01:07:28;99297.06;;;12.13;90.88
41624;BME280;27319;50.306;18.926;2022-10-17T01:31:17;99303.06;;;11.98;90.89
41624;BME280;27319;50.306;18.926;2022-10-17T01:34:31;99298.88;;;12.13;91.44
41624;BME280;27319;50.306;18.926;2022-10-17T01:37:47;99311.72;;;12.19;91.46
41624;BME280;27319;50.306;18.926;2022-10-17T01:40:59;99312.34;;;12.13;90.97
41624;BME280;27319;50.306;18.926;2022-10-17T01:48:22;99313.22;;;11.86;90.70
41624;BME280;27319;50.306;18.926;2022-10-17T01:52:36;99305.00;;;11.88;91.55
41624;BME280;27319;50.306;18.926;2022-10-17T01:56:34;99309.59;;;11.95;91.54
41624;BME280;27319;50.306;18.926;2022-10-17T02:00:38;99312.88;;;12.16;91.34
41624;BME280;27319;50.306;18.926;2022-10-17T02:04:00;99323.91;;;12.23;90.36
41624;BME280;27319;50.306;18.926;2022-10-17T02:07:07;99311.78;;;12.09;89.86
41624;BME280;27319;50.306;18.926;2022-10-17T02:10:14;99319.75;;;12.01;89.50
41624;BME280;27319;50.306;18.926;2022-10-17T02:23:36;99306.78;;;11.97;90.30
41624;BME280;27319;50.306;18.926;2022-10-17T02:30:36;99302.69;;;11.93;90.74
41624;BME280;27319;50.306;18.926;2022-10-17T02:34:48;99304.16;;;11.87;90.68
41624;BME280;27319;50.306;18.926;2022-10-17T02:38:28;99306.13;;;11.58;89.19
41624;BME280;27319;50.306;18.926;2022-10-17T02:41:30;99300.03;;;11.56;91.08
41624;BME280;27319;50.306;18.926;2022-10-17T02:44:32;99311.72;;;11.74;92.36
41624;BME280;27319;50.306;18.926;2022-10-17T02:47:56;99311.22;;;11.88;93.08
41624;BME280;27319;50.306;18.926;2022-10-17T02:54:35;99318.19;;;11.81;89.92
41624;BME280;27319;50.306;18.926;2022-10-17T02:57:43;99324.97;;;11.49;89.42
41624;BME280;27319;50.306;18.926;2022-10-17T03:00:44;99331.84;;;11.70;90.92
41624;BME280;27319;50.306;18.926;2022-10-17T03:03:46;99341.53;;;11.81;91.24
41624;BME280;27319;50.306;18.926;2022-10-17T03:06:47;99334.03;;;11.84;90.95
41624;BME280;27319;50.306;18.926;2022-10-17T03:09:49;99343.59;;;11.69;90.36
41624;BME280;27319;50.306;18.926;2022-10-17T03:12:49;99343.00;;;11.29;88.82
41624;BME280;27319;50.306;18.926;2022-10-17T03:15:50;99341.94;;;11.13;88.80
41624;BME280;27319;50.306;18.926;2022-10-17T03:18:51;99341.50;;;11.08;89.94
41624;BME280;27319;50.306;18.926;2022-10-17T03:21:53;99340.75;;;11.25;91.37
41624;BME280;27319;50.306;18.926;2022-10-17T03:24:53;99337.31;;;11.32;91.12
41624;BME280;27319;50.306;18.926;2022-10-17T03:27:57;99338.28;;;11.41;90.74
41624;BME280;27319;50.306;18.926;2022-10-17T03:30:58;99344.06;;;11.46;91.11
41624;BME280;27319;50.306;18.926;2022-10-17T03:34:00;99353.13;;;11.45;90.93
41624;BME280;27319;50.306;18.926;2022-10-17T03:37:01;99352.31;;;11.35;90.16
41624;BME280;27319;50.306;18.926;2022-10-17T03:40:02;99354.72;;;11.38;90.93
41624;BME280;27319;50.306;18.926;2022-10-17T03:43:03;99348.94;;;11.33;90.98
41624;BME280;27319;50.306;18.926;2022-10-17T03:46:05;99360.84;;;11.21;90.69
41624;BME280;27319;50.306;18.926;2022-10-17T03:49:08;99343.19;;;11.09;90.51
41624;BME280;27319;50.306;18.926;2022-10-17T03:52:11;99348.13;;;11.13;91.42
41624;BME280;27319;50.306;18.926;2022-10-17T03:55:12;99353.47;;;11.23;92.33
41624;BME280;27319;50.306;18.926;2022-10-17T03:58:13;99354.78;;;11.19;90.90
41624;BME280;27319;50.306;18.926;2022-10-17T04:01:15;99358.00;;;11.32;92.00
41624;BME280;27319;50.306;18.926;2022-10-17T04:04:17;99367.47;;;11.36;90.76
41624;BME280;27319;50.306;18.926;2022-10-17T04:07:17;99364.50;;;11.29;91.81
41624;BME280;27319;50.306;18.926;2022-10-17T04:10:18;99373.00;;;11.34;91.19
41624;BME280;27319;50.306;18.926;2022-10-17T04:13:19;99379.19;;;11.35;91.06
41624;BME280;27319;50.306;18.926;2022-10-17T04:16:21;99380.66;;;11.20;90.83
41624;BME280;27319;50.306;18.926;2022-10-17T04:19:22;99376.13;;;11.20;90.71
41624;BME280;27319;50.306;18.926;2022-10-17T04:22:23;99376.81;;;11.32;91.28
41624;BME280;27319;50.306;18.926;2022-10-17T04:25:24;99377.25;;;11.18;90.41
41624;BME280;27319;50.306;18.926;2022-10-17T04:28:26;99384.63;;;11.16;90.04
41624;BME280;27319;50.306;18.926;2022-10-17T04:31:26;99376.41;;;11.17;89.78
41624;BME280;27319;50.306;18.926;2022-10-17T04:34:27;99380.94;;;11.17;90.42
41624;BME280;27319;50.306;18.926;2022-10-17T04:37:28;99380.13;;;11.07;89.89
41624;BME280;27319;50.306;18.926;2022-10-17T04:40:30;99389.88;;;11.08;90.58
41624;BME280;27319;50.306;18.926;2022-10-17T04:43:32;99379.28;;;10.78;89.89
41624;BME280;27319;50.306;18.926;2022-10-17T04:46:33;99380.28;;;10.58;90.77
41624;BME280;27319;50.306;18.926;2022-10-17T04:49:34;99369.50;;;10.86;91.20
41624;BME280;27319;50.306;18.926;2022-10-17T04:52:55;99378.44;;;10.87;90.79
41624;BME280;27319;50.306;18.926;2022-10-17T04:56:56;99366.13;;;10.94;90.36
41624;BME280;27319;50.306;18.926;2022-10-17T05:00:56;99372.47;;;11.02;91.74
41624;BME280;27319;50.306;18.926;2022-10-17T05:04:57;99373.44;;;11.11;91.21
41624;BME280;27319;50.306;18.926;2022-10-17T05:08:38;99383.38;;;11.10;90.95
41624;BME280;27319;50.306;18.926;2022-10-17T05:12:38;99386.03;;;11.01;90.66
41624;BME280;27319;50.306;18.926;2022-10-17T05:16:39;99387.75;;;10.83;90.87
41624;BME280;27319;50.306;18.926;2022-10-17T05:20:19;99386.59;;;10.95;91.13
41624;BME280;27319;50.306;18.926;2022-10-17T05:23:40;99386.78;;;10.93;91.53
41624;BME280;27319;50.306;18.926;2022-10-17T05:27:41;99400.78;;;10.97;91.84
41624;BME280;27319;50.306;18.926;2022-10-17T05:31:41;99413.22;;;10.98;92.04
41624;BME280;27319;50.306;18.926;2022-10-17T05:35:42;99414.06;;;10.98;91.66
41624;BME280;27319;50.306;18.926;2022-10-17T05:39:43;99406.44;;;10.75;90.89
41624;BME280;27319;50.306;18.926;2022-10-17T05:43:43;99418.03;;;10.76;90.90
41624;BME280;27319;50.306;18.926;2022-10-17T05:47:44;99412.91;;;10.63;89.98
41624;BME280;27319;50.306;18.926;2022-10-17T05:51:07;99415.16;;;10.49;90.42
41624;BME280;27319;50.306;18.926;2022-10-17T05:54:08;99414.63;;;10.64;91.71
41624;BME280;27319;50.306;18.926;2022-10-17T05:57:29;99411.22;;;10.72;91.96
41624;BME280;27319;50.306;18.926;2022-10-17T06:01:29;99422.66;;;10.83;92.50
41624;BME280;27319;50.306;18.926;2022-10-17T06:05:30;99423.81;;;10.90;92.78
41624;BME280;27319;50.306;18.926;2022-10-17T06:09:30;99438.25;;;10.98;93.47
41624;BME280;27319;50.306;18.926;2022-10-17T06:12:46;99435.56;;;10.98;93.35
41624;BME280;27319;50.306;18.926;2022-10-17T06:15:48;99438.38;;;10.97;93.73
41624;BME280;27319;50.306;18.926;2022-10-17T06:19:08;99447.81;;;11.01;93.81
41624;BME280;27319;50.306;18.926;2022-10-17T06:23:09;99446.00;;;11.01;94.27
41624;BME280;27319;50.306;18.926;2022-10-17T06:27:09;99443.44;;;11.09;94.47
41624;BME280;27319;50.306;18.926;2022-10-17T06:31:11;99453.63;;;11.15;94.75
41624;BME280;27319;50.306;18.926;2022-10-17T06:35:11;99468.34;;;11.21;94.88
41624;BME280;27319;50.306;18.926;2022-10-17T06:39:11;99457.16;;;11.25;95.38
41624;BME280;27319;50.306;18.926;2022-10-17T06:43:15;99456.19;;;11.36;96.75
41624;BME280;27319;50.306;18.926;2022-10-17T06:47:15;99463.50;;;11.43;96.94
41624;BME280;27319;50.306;18.926;2022-10-17T06:51:00;99466.59;;;11.48;96.91
41624;BME280;27319;50.306;18.926;2022-10-17T06:54:01;99474.28;;;11.62;96.86
41624;BME280;27319;50.306;18.926;2022-10-17T06:57:02;99478.78;;;11.62;97.35
41624;BME280;27319;50.306;18.926;2022-10-17T07:00:03;99479.75;;;11.70;96.95
41624;BME280;27319;50.306;18.926;2022-10-17T07:03:26;99492.34;;;11.79;97.00
41624;BME280;27319;50.306;18.926;2022-10-17T07:07:29;99486.63;;;11.92;96.87
41624;BME280;27319;50.306;18.926;2022-10-17T07:11:29;99492.16;;;12.00;96.54
41624;BME280;27319;50.306;18.926;2022-10-17T07:15:30;99499.63;;;12.06;96.34
41624;BME280;27319;50.306;18.926;2022-10-17T07:19:30;99505.81;;;12.16;96.54
41624;BME280;27319;50.306;18.926;2022-10-17T07:23:31;99504.06;;;12.34;94.89
41624;BME280;27319;50.306;18.926;2022-10-17T07:27:32;99505.97;;;12.51;94.60
41624;BME280;27319;50.306;18.926;2022-10-17T07:31:32;99512.25;;;12.69;93.22
41624;BME280;27319;50.306;18.926;2022-10-17T07:35:33;99515.31;;;13.01;90.07
41624;BME280;27319;50.306;18.926;2022-10-17T07:39:34;99504.69;;;13.17;88.53
41624;BME280;27319;50.306;18.926;2022-10-17T07:43:14;99511.88;;;13.26;87.90
41624;BME280;27319;50.306;18.926;2022-10-17T07:46:15;99515.31;;;13.36;87.09
41624;BME280;27319;50.306;18.926;2022-10-17T07:49:36;99512.72;;;13.44;87.41
41624;BME280;27319;50.306;18.926;2022-10-17T07:53:37;99522.09;;;13.57;85.97
41624;BME280;27319;50.306;18.926;2022-10-17T07:57:37;99517.03;;;13.80;84.10
41624;BME280;27319;50.306;18.926;2022-10-17T08:01:38;99524.81;;;13.83;84.30
41624;BME280;27319;50.306;18.926;2022-10-17T08:05:38;99514.47;;;13.96;84.39
41624;BME280;27319;50.306;18.926;2022-10-17T08:09:39;99515.19;;;14.06;84.17
41624;BME280;27319;50.306;18.926;2022-10-17T08:13:40;99519.25;;;14.27;83.15
41624;BME280;27319;50.306;18.926;2022-10-17T08:17:40;99527.59;;;14.42;82.17
41624;BME280;27319;50.306;18.926;2022-10-17T08:21:41;99516.47;;;14.45;82.60
41624;BME280;27319;50.306;18.926;2022-10-17T08:25:41;99522.72;;;14.45;83.13
41624;BME280;27319;50.306;18.926;2022-10-17T08:29:42;99528.56;;;14.66;83.14
41624;BME280;27319;50.306;18.926;2022-10-17T08:33:43;99535.53;;;14.85;81.56
41624;BME280;27319;50.306;18.926;2022-10-17T08:37:43;99534.22;;;14.97;80.33
41624;BME280;27319;50.306;18.926;2022-10-17T08:45:31;99533.97;;;15.16;79.09
41624;BME280;27319;50.306;18.926;2022-10-17T08:53:22;99528.28;;;15.35;79.35
41624;BME280;27319;50.306;18.926;2022-10-17T08:57:20;99526.94;;;15.63;76.87
41624;BME280;27319;50.306;18.926;2022-10-17T09:08:58;99523.38;;;16.10;74.11
41624;BME280;27319;50.306;18.926;2022-10-17T09:20:23;99529.75;;;16.41;72.44
41624;BME280;27319;50.306;18.926;2022-10-17T09:24:05;99527.50;;;16.53;72.75
41624;BME280;27319;50.306;18.926;2022-10-17T09:27:23;99531.03;;;16.61;71.69
41624;BME280;27319;50.306;18.926;2022-10-17T09:34:43;99529.63;;;16.73;71.35
41624;BME280;27319;50.306;18.926;2022-10-17T09:38:38;99521.81;;;16.78;71.61
41624;BME280;27319;50.306;18.926;2022-10-17T09:42:28;99526.69;;;16.91;71.69
41624;BME280;27319;50.306;18.926;2022-10-17T09:46:09;99536.84;;;17.19;71.25
41624;BME280;27319;50.306;18.926;2022-10-17T09:50:14;99530.31;;;17.44;69.91
41624;BME280;27319;50.306;18.926;2022-10-17T09:54:19;99533.91;;;17.59;69.96
41624;BME280;27319;50.306;18.926;2022-10-17T09:58:03;99524.38;;;17.63;69.70
41624;BME280;27319;50.306;18.926;2022-10-17T10:04:53;99533.06;;;17.81;68.24
41624;BME280;27319;50.306;18.926;2022-10-17T10:08:55;99529.84;;;18.00;67.55
41624;BME280;27319;50.306;18.926;2022-10-17T10:12:37;99533.97;;;18.11;69.31
41624;BME280;27319;50.306;18.926;2022-10-17T10:19:01;99536.00;;;18.31;67.14
41624;BME280;27319;50.306;18.926;2022-10-17T10:26:48;99534.34;;;18.59;65.68
41624;BME280;27319;50.306;18.926;2022-10-17T10:30:48;99529.53;;;18.90;64.38
41624;BME280;27319;50.306;18.926;2022-10-17T10:34:52;99524.22;;;19.18;64.14
41624;BME280;27319;50.306;18.926;2022-10-17T10:38:52;99525.66;;;19.28;62.26
41624;BME280;27319;50.306;18.926;2022-10-17T10:42:54;99531.81;;;19.58;61.28
41624;BME280;27319;50.306;18.926;2022-10-17T10:46:33;99529.97;;;19.79;59.81
41624;BME280;27319;50.306;18.926;2022-10-17T10:49:34;99526.63;;;20.05;60.43
41624;BME280;27319;50.306;18.926;2022-10-17T10:53:13;99526.66;;;20.32;61.01
41624;BME280;27319;50.306;18.926;2022-10-17T10:59:42;99526.22;;;20.29;59.43
41624;BME280;27319;50.306;18.926;2022-10-17T11:03:51;99520.09;;;20.54;58.49
41624;BME280;27319;50.306;18.926;2022-10-17T11:18:54;99514.78;;;21.21;55.34
41624;BME280;27319;50.306;18.926;2022-10-17T11:22:57;99505.03;;;21.65;55.66
41624;BME280;27319;50.306;18.926;2022-10-17T11:27:05;99505.50;;;22.08;54.02
41624;BME280;27319;50.306;18.926;2022-10-17T11:30:58;99514.75;;;22.52;55.49
41624;BME280;27319;50.306;18.926;2022-10-17T11:35:04;99504.63;;;22.66;52.63
41624;BME280;27319;50.306;18.926;2022-10-17T11:43:31;99511.34;;;22.70;51.34
41624;BME280;27319;50.306;18.926;2022-10-17T11:47:43;99513.38;;;22.94;51.18
41624;BME280;27319;50.306;18.926;2022-10-17T11:50:46;99511.16;;;23.28;51.96
41624;BME280;27319;50.306;18.926;2022-10-17T12:06:51;99496.91;;;23.82;52.16
41624;BME280;27319;50.306;18.926;2022-10-17T12:10:49;99501.38;;;24.07;49.23
41624;BME280;27319;50.306;18.926;2022-10-17T12:17:24;99496.22;;;23.93;49.55
41624;BME280;27319;50.306;18.926;2022-10-17T12:21:22;99490.72;;;23.93;49.47
41624;BME280;27319;50.306;18.926;2022-10-17T12:25:27;99487.47;;;24.02;48.93
41624;BME280;27319;50.306;18.926;2022-10-17T12:29:27;99486.38;;;24.10;50.31
41624;BME280;27319;50.306;18.926;2022-10-17T12:47:54;99481.53;;;24.30;51.03
41624;BME280;27319;50.306;18.926;2022-10-17T12:55:57;99482.31;;;24.37;49.70
41624;BME280;27319;50.306;18.926;2022-10-17T12:59:51;99479.44;;;24.50;49.24
41624;BME280;27319;50.306;18.926;2022-10-17T13:03:51;99483.69;;;24.46;49.25
41624;BME280;27319;50.306;18.926;2022-10-17T13:07:33;99484.91;;;24.32;50.01
41624;BME280;27319;50.306;18.926;2022-10-17T13:10:37;99473.25;;;24.12;51.92
41624;BME280;27319;50.306;18.926;2022-10-17T13:13:48;99472.81;;;23.90;50.92
41624;BME280;27319;50.306;18.926;2022-10-17T13:16:59;99474.56;;;23.78;53.33
41624;BME280;27319;50.306;18.926;2022-10-17T13:20:00;99470.25;;;23.64;53.05
41624;BME280;27319;50.306;18.926;2022-10-17T13:23:01;99471.34;;;23.88;49.46
41624;BME280;27319;50.306;18.926;2022-10-17T13:26:13;99467.94;;;24.17;49.01
41624;BME280;27319;50.306;18.926;2022-10-17T13:29:15;99469.53;;;24.49;48.06
41624;BME280;27319;50.306;18.926;2022-10-17T13:32:16;99473.34;;;24.48;49.32
41624;BME280;27319;50.306;18.926;2022-10-17T13:35:27;99463.56;;;24.09;48.53
41624;BME280;27319;50.306;18.926;2022-10-17T13:38:31;99464.63;;;24.08;50.07
41624;BME280;27319;50.306;18.926;2022-10-17T13:41:53;99452.03;;;24.01;50.13
41624;BME280;27319;50.306;18.926;2022-10-17T13:45:54;99464.13;;;23.62;49.33
41624;BME280;27319;50.306;18.926;2022-10-17T13:49:36;99466.06;;;23.62;50.59
41624;BME280;27319;50.306;18.926;2022-10-17T13:53:35;99455.25;;;23.36;51.22
41624;BME280;27319;50.306;18.926;2022-10-17T13:57:38;99454.34;;;23.04;50.51
41624;BME280;27319;50.306;18.926;2022-10-17T14:01:38;99465.44;;;22.72;52.77
41624;BME280;27319;50.306;18.926;2022-10-17T14:13:03;99448.69;;;21.71;55.88
41624;BME280;27319;50.306;18.926;2022-10-17T14:17:11;99446.16;;;21.50;55.88
41624;BME280;27319;50.306;18.926;2022-10-17T14:21:07;99447.56;;;21.20;56.22
41624;BME280;27319;50.306;18.926;2022-10-17T14:25:40;99442.28;;;21.05;57.84
41624;BME280;27319;50.306;18.926;2022-10-17T14:29:25;99449.00;;;21.03;57.44
41624;BME280;27319;50.306;18.926;2022-10-17T14:33:28;99451.19;;;20.86;57.53
41624;BME280;27319;50.306;18.926;2022-10-17T14:41:12;99453.00;;;20.66;58.45
41624;BME280;27319;50.306;18.926;2022-10-17T14:45:13;99452.84;;;20.40;60.86
41624;BME280;27319;50.306;18.926;2022-10-17T14:49:49;99451.72;;;20.22;60.50
41624;BME280;27319;50.306;18.926;2022-10-17T14:53:25;99451.41;;;20.10;61.75
41624;BME280;27319;50.306;18.926;2022-10-17T14:57:38;99450.88;;;20.00;61.42
41624;BME280;27319;50.306;18.926;2022-10-17T15:01:28;99454.81;;;19.91;61.58
41624;BME280;27319;50.306;18.926;2022-10-17T15:05:28;99445.25;;;19.74;63.78
41624;BME280;27319;50.306;18.926;2022-10-17T15:09:29;99438.19;;;19.59;63.28
41624;BME280;27319;50.306;18.926;2022-10-17T15:13:29;99442.94;;;19.50;64.10
41624;BME280;27319;50.306;18.926;2022-10-17T15:17:39;99441.69;;;19.32;63.86
41624;BME280;27319;50.306;18.926;2022-10-17T15:21:39;99436.66;;;19.14;64.45
41624;BME280;27319;50.306;18.926;2022-10-17T15:25:40;99437.56;;;19.00;64.13
41624;BME280;27319;50.306;18.926;2022-10-17T15:29:40;99434.69;;;18.87;66.70
41624;BME280;27319;50.306;18.926;2022-10-17T15:33:41;99427.41;;;18.73;66.64
41624;BME280;27319;50.306;18.926;2022-10-17T15:37:42;99434.75;;;18.58;66.57
41624;BME280;27319;50.306;18.926;2022-10-17T15:41:42;99431.94;;;18.52;67.31
41624;BME280;27319;50.306;18.926;2022-10-17T15:45:43;99428.38;;;18.37;67.55
41624;BME280;27319;50.306;18.926;2022-10-17T15:49:43;99437.84;;;18.26;67.31
41624;BME280;27319;50.306;18.926;2022-10-17T15:53:24;99432.41;;;18.12;67.81
41624;BME280;27319;50.306;18.926;2022-10-17T15:56:29;99431.00;;;18.01;67.76
41624;BME280;27319;50.306;18.926;2022-10-17T15:59:33;99429.56;;;17.91;68.89
41624;BME280;27319;50.306;18.926;2022-10-17T16:02:54;99427.13;;;17.81;70.87
41624;BME280;27319;50.306;18.926;2022-10-17T16:06:55;99429.63;;;17.68;69.99
41624;BME280;27319;50.306;18.926;2022-10-17T16:10:55;99419.88;;;17.59;70.22
41624;BME280;27319;50.306;18.926;2022-10-17T16:14:56;99440.16;;;17.49;71.20
41624;BME280;27319;50.306;18.926;2022-10-17T16:18:56;99437.19;;;17.36;72.44
41624;BME280;27319;50.306;18.926;2022-10-17T16:22:57;99437.88;;;17.38;71.85
41624;BME280;27319;50.306;18.926;2022-10-17T16:26:58;99442.19;;;17.24;71.88
41624;BME280;27319;50.306;18.926;2022-10-17T16:30:58;99443.16;;;17.09;72.62
41624;BME280;27319;50.306;18.926;2022-10-17T16:34:59;99454.72;;;17.03;73.55
41624;BME280;27319;50.306;18.926;2022-10-17T16:38:59;99453.38;;;16.99;73.00
41624;BME280;27319;50.306;18.926;2022-10-17T16:43:00;99446.66;;;16.95;74.08
41624;BME280;27319;50.306;18.926;2022-10-17T16:47:01;99456.56;;;16.80;73.48
41624;BME280;27319;50.306;18.926;2022-10-17T16:51:01;99456.63;;;16.72;72.97
41624;BME280;27319;50.306;18.926;2022-10-17T16:55:02;99451.91;;;16.66;74.40
41624;BME280;27319;50.306;18.926;2022-10-17T16:59:02;99449.91;;;16.52;74.02
41624;BME280;27319;50.306;18.926;2022-10-17T17:03:03;99457.88;;;16.53;76.02
41624;BME280;27319;50.306;18.926;2022-10-17T17:07:04;99446.94;;;16.39;77.69
41624;BME280;27319;50.306;18.926;2022-10-17T17:10:47;99452.03;;;16.26;75.06
41624;BME280;27319;50.306;18.926;2022-10-17T17:13:55;99445.63;;;16.19;75.85
41624;BME280;27319;50.306;18.926;2022-10-17T17:16:56;99438.84;;;16.23;77.69
41624;BME280;27319;50.306;18.926;2022-10-17T17:20:17;99428.03;;;16.15;77.58
41624;BME280;27319;50.306;18.926;2022-10-17T17:24:18;99433.13;;;16.10;77.56
41624;BME280;27319;50.306;18.926;2022-10-17T17:28:01;99436.94;;;15.85;76.22
41624;BME280;27319;50.306;18.926;2022-10-17T17:31:06;99437.91;;;15.84;78.96
41624;BME280;27319;50.306;18.926;2022-10-17T17:34:08;99425.41;;;15.83;78.69
41624;BME280;27319;50.306;18.926;2022-10-17T17:37:09;99436.22;;;15.83;79.37
41624;BME280;27319;50.306;18.926;2022-10-17T17:40:10;99434.91;;;15.79;77.15
41624;BME280;27319;50.306;18.926;2022-10-17T17:43:11;99437.09;;;15.83;77.79
41624;BME280;27319;50.306;18.926;2022-10-17T17:46:13;99427.44;;;15.81;78.00
41624;BME280;27319;50.306;18.926;2022-10-17T17:49:16;99433.88;;;15.72;77.14
41624;BME280;27319;50.306;18.926;2022-10-17T17:52:17;99436.25;;;15.67;78.36
41624;BME280;27319;50.306;18.926;2022-10-17T17:55:17;99429.19;;;15.58;76.71
41624;BME280;27319;50.306;18.926;2022-10-17T17:58:38;99442.38;;;15.69;78.24
41624;BME280;27319;50.306;18.926;2022-10-17T18:02:38;99442.34;;;15.77;77.49
41624;BME280;27319;50.306;18.926;2022-10-17T18:06:39;99445.38;;;15.82;79.36
41624;BME280;27319;50.306;18.926;2022-10-17T18:10:35;99441.19;;;15.71;77.04
41624;BME280;27319;50.306;18.926;2022-10-17T18:13:57;99446.06;;;15.76;79.83
41624;BME280;27319;50.306;18.926;2022-10-17T18:17:56;99440.84;;;15.66;78.70
41624;BME280;27319;50.306;18.926;2022-10-17T18:21:57;99444.41;;;15.59;78.56
41624;BME280;27319;50.306;18.926;2022-10-17T18:25:58;99437.47;;;15.56;80.81
41624;BME280;27319;50.306;18.926;2022-10-17T18:29:58;99444.56;;;15.49;79.97
41624;BME280;27319;50.306;18.926;2022-10-17T18:33:59;99443.88;;;15.31;76.24
41624;BME280;27319;50.306;18.926;2022-10-17T18:37:59;99439.97;;;15.26;77.76
41624;BME280;27319;50.306;18.926;2022-10-17T18:42:00;99444.88;;;15.22;78.95
41624;BME280;27319;50.306;18.926;2022-10-17T18:46:08;99433.91;;;15.16;79.21
41624;BME280;27319;50.306;18.926;2022-10-17T18:50:04;99439.13;;;15.17;81.05
41624;BME280;27319;50.306;18.926;2022-10-17T18:54:06;99447.75;;;15.13;80.25
41624;BME280;27319;50.306;18.926;2022-10-17T18:58:05;99447.75;;;15.05;79.46
41624;BME280;27319;50.306;18.926;2022-10-17T19:02:06;99442.00;;;15.00;80.18
41624;BME280;27319;50.306;18.926;2022-10-17T19:05:47;99452.44;;;14.87;81.37
41624;BME280;27319;50.306;18.926;2022-10-17T19:09:08;99442.81;;;14.92;81.00
41624;BME280;27319;50.306;18.926;2022-10-17T19:13:08;99445.31;;;14.86;81.64
41624;BME280;27319;50.306;18.926;2022-10-17T19:17:09;99445.00;;;14.81;80.97
41624;BME280;27319;50.306;18.926;2022-10-17T19:20:50;99442.78;;;14.76;81.33
41624;BME280;27319;50.306;18.926;2022-10-17T19:23:55;99430.44;;;14.74;81.94
41624;BME280;27319;50.306;18.926;2022-10-17T19:26:57;99431.28;;;14.66;81.55
41624;BME280;27319;50.306;18.926;2022-10-17T19:30:22;99436.66;;;14.58;81.39
41624;BME280;27319;50.306;18.926;2022-10-17T19:34:22;99430.06;;;14.53;82.41
41624;BME280;27319;50.306;18.926;2022-10-17T19:38:23;99432.25;;;14.65;83.28
41624;BME280;27319;50.306;18.926;2022-10-17T19:42:03;99439.13;;;14.44;82.73
41624;BME280;27319;50.306;18.926;2022-10-17T19:45:05;99441.41;;;14.23;79.98
41624;BME280;27319;50.306;18.926;2022-10-17T19:48:06;99436.28;;;14.12;80.91
41624;BME280;27319;50.306;18.926;2022-10-17T19:51:09;99435.41;;;14.11;81.29
41624;BME280;27319;50.306;18.926;2022-10-17T19:54:10;99439.81;;;14.12;81.90
41624;BME280;27319;50.306;18.926;2022-10-17T19:57:12;99440.06;;;14.19;82.46
41624;BME280;27319;50.306;18.926;2022-10-17T20:00:13;99440.66;;;14.13;82.90
41624;BME280;27319;50.306;18.926;2022-10-17T20:03:14;99435.94;;;14.15;82.90
41624;BME280;27319;50.306;18.926;2022-10-17T20:06:16;99438.91;;;14.04;82.59
41624;BME280;27319;50.306;18.926;2022-10-17T20:09:36;99442.63;;;14.03;82.77
41624;BME280;27319;50.306;18.926;2022-10-17T20:13:39;99431.09;;;13.93;82.41
41624;BME280;27319;50.306;18.926;2022-10-17T20:17:20;99430.19;;;13.84;83.85
41624;BME280;27319;50.306;18.926;2022-10-17T20:20:21;99428.34;;;13.85;83.46
41624;BME280;27319;50.306;18.926;2022-10-17T20:23:42;99433.06;;;13.83;84.05
41624;BME280;27319;50.306;18.926;2022-10-17T20:27:42;99420.94;;;13.87;83.20
41624;BME280;27319;50.306;18.926;2022-10-17T20:31:43;99431.59;;;13.63;82.32
41624;BME280;27319;50.306;18.926;2022-10-17T20:35:43;99421.72;;;13.54;83.04
41624;BME280;27319;50.306;18.926;2022-10-17T20:39:25;99421.53;;;13.47;83.20
41624;BME280;27319;50.306;18.926;2022-10-17T20:42:46;99429.09;;;13.44;83.55
41624;BME280;27319;50.306;18.926;2022-10-17T20:46:46;99428.47;;;13.50;83.32
41624;BME280;27319;50.306;18.926;2022-10-17T20:50:47;99421.31;;;13.41;83.31
41624;BME280;27319;50.306;18.926;2022-10-17T20:54:48;99423.84;;;13.42;84.32
41624;BME280;27319;50.306;18.926;2022-10-17T20:58:52;99425.31;;;13.37;84.47
41624;BME280;27319;50.306;18.926;2022-10-17T21:02:52;99419.03;;;13.28;83.76
41624;BME280;27319;50.306;18.926;2022-10-17T21:06:52;99418.31;;;13.44;83.80
41624;BME280;27319;50.306;18.926;2022-10-17T21:10:53;99422.28;;;13.32;83.54
41624;BME280;27319;50.306;18.926;2022-10-17T21:14:29;99425.03;;;13.22;84.10
41624;BME280;27319;50.306;18.926;2022-10-17T21:17:50;99418.03;;;13.12;84.09
41624;BME280;27319;50.306;18.926;2022-10-17T21:21:51;99419.63;;;12.97;83.20
41624;BME280;27319;50.306;18.926;2022-10-17T21:25:51;99418.69;;;12.79;82.31